عرعر, السعودية

08:54 PM AST on أمتèبر 20, 2014 (GMT +0300)
Arar | Change Station
CLOSE
Current Station
Airport
Location: Arar,
Elevation: 1821 ft
Nearby Weather Stations

Elev 1821 ft 30.91 °N, 41.14 °E | Updated 54 minutes ago

Scattered Clouds
غيوم متفرقة
64 °F
Feels Like 64 °F
N
13
ريح متغير ريح from شمال

هذا اليوم
High -- | Low -- °F
--% Chance of Precip.
Yesterday
High -- | Low -- °F
Precip. -- في
6:21 AM 5:38 PM
الهلال الأخير, 10% visible
الضغط 29.89 في
وضوح الرؤية 6.2 أميال
سحابات غيوم متفرقة 4000 ft
نقطة الندى 55 °F
الرطوبة 73%
Rainfall 0.00 في
عمق الثلج Not available.
الأشعة فوق البنفسجية 0 out of 12
Pollen Not available.
جودة الهواء Not available.
Flu Activity Not available.
METAR OERR 201700Z 35011KT 9999 SCT040 18/13 Q1012 NOSIG

More Conditions Fewer Conditions

الضغط 29.89 في
وضوح الرؤية 6.2 أميال
سحابات غيوم متفرقة 4000 ft
نقطة الندى 55 °F
الرطوبة 73%
Rainfall 0.00 في
عمق الثلج Not available.
الأشعة فوق البنفسجية 0 out of 12
Pollen Not available.
جودة الهواء Not available.
Flu Activity Not available.
METAR OERR 201700Z 35011KT 9999 SCT040 18/13 Q1012 NOSIG

More Conditions Fewer Conditions

10-Day Weather Forecast

Almanac

علم الفلك

Oct. 20, 2014 Rise Set
Actual Time 6:21 AM AST 5:38 PM AST
Civil Twilight 5:56 AM AST 6:03 PM AST
Nautical Twilight 5:28 AM AST 6:31 PM AST
Astronomical Twilight 5:00 AM AST 6:59 PM AST
قمر 3:03 AM AST 3:38 PM AST
Length Of Visible Light 12h 06m
طول الیوم
11h 17m
Tomorrow will be 1m 46s shorter.
الهلال الأخير, 10% of the Moon is Illuminated
هذا اليوم
الهلال الأخير
Oct 23
New
Oct 30
الربع الاول
Nov 6
بدر
Nov 14
الربع الآخر

Today's Extremes

Country Highs Country Lows

Community

WunderPhotos

Upload Photos

1,763,446 photos uploaded!

WunderBlogs® & News

Nearby

جودة الهواء

Not available.

عمق الثلج

Not available.

Earthquake Activity

City Distance Mag. Time & Date
No recent earthquake activity has been reported nearby.
Minimum magnitude displayed is 2.5.

Coastal Water Temperatures

مكان درجات الحرارة
No Stations Reporting

Nearby Weather Stations